Time;durP1;ratioP1;P1;durP2;ratioP2;P2;SDS_P1;SDS_P2;PMS_P1;PMS_P2;Temp;Humidity;BMP_temperature;BMP_pressure;BME280_temperature;BME280_humidity;BME280_pressure;Samples;Min_cycle;Max_cycle;Signal;HPM_P1;HPM_P2
2022/03/03 00:01:36;;;;;;;;;;;;;;;31.40;18.05;100397.44;5074538;28;862;-42
2022/03/03 00:04:02;;;;;;;;;;;;;;;31.00;18.12;100389.53;5076511;28;1552;-42
2022/03/03 00:06:27;;;;;;;;;;;;;;;30.70;18.17;100385.47;5076529;28;937;-42
2022/03/03 00:08:52;;;;;;;;;;;;;;;31.05;18.40;100395.13;5076402;28;794;-42
2022/03/03 00:11:18;;;;;;;;;;;;;;;31.34;18.07;100392.84;5074326;28;1965;-41
2022/03/03 00:13:44;;;;;;;;;;;;;;;31.18;18.32;100388.78;5076755;28;1296;-42
2022/03/03 00:16:09;;;;;;;;;;;;;;;31.26;18.45;100395.84;5069291;28;898;-42
2022/03/03 00:18:34;;;;;;;;;;;;;;;31.12;18.48;100395.09;5076128;28;921;-42
2022/03/03 00:20:59;;;;;;;;;;;;;;;31.23;17.98;100388.94;5076745;28;944;-42
2022/03/03 00:23:25;;;;;;;;;;;;;;;31.21;17.92;100393.78;5076269;28;865;-42
2022/03/03 00:25:50;;;;;;;;;;;;;;;30.88;18.20;100395.66;5076509;28;806;-42
2022/03/03 00:28:16;;;;;;;;;;;;;;;30.68;18.70;100391.13;5076656;28;791;-42
2022/03/03 00:30:41;;;;;;;;;;;;;;;31.33;18.26;100385.75;5072872;28;1894;-42
2022/03/03 00:33:06;;;;;;;;;;;;;;;31.23;18.23;100388.13;5073235;28;1242;-42
2022/03/03 00:35:32;;;;;;;;;;;;;;;31.38;18.16;100401.41;5074306;28;948;-42
2022/03/03 00:37:57;;;;;;;;;;;;;;;31.21;18.24;100392.94;5075889;28;1109;-42
2022/03/03 00:40:22;;;;;;;;;;;;;;;31.16;18.33;100396.34;5076361;28;810;-42
2022/03/03 00:42:47;;;;;;;;;;;;;;;31.34;18.11;100405.59;5075813;28;837;-41
2022/03/03 00:45:13;;;;;;;;;;;;;;;30.73;18.40;100409.47;5069543;28;884;-42
2022/03/03 00:47:38;;;;;;;;;;;;;;;30.58;18.44;100407.03;5075311;28;719;-42
2022/03/03 00:50:04;;;;;;;;;;;;;;;31.02;18.61;100411.88;5075878;28;1910;-42
2022/03/03 00:52:29;;;;;;;;;;;;;;;31.12;18.32;100405.97;5076118;28;782;-42
2022/03/03 00:54:54;;;;;;;;;;;;;;;31.12;18.44;100406.78;5076547;28;758;-42
2022/03/03 00:57:19;;;;;;;;;;;;;;;31.13;18.20;100415.78;5072129;28;865;-43
2022/03/03 00:59:45;;;;;;;;;;;;;;;31.12;18.45;100416.81;5075939;28;773;-41
2022/03/03 01:02:10;;;;;;;;;;;;;;;31.34;18.27;100401.00;5075628;28;733;-41
2022/03/03 01:04:35;;;;;;;;;;;;;;;31.55;17.67;100407.13;5076301;28;751;-41
2022/03/03 01:07:01;;;;;;;;;;;;;;;30.80;18.13;100404.03;5076168;28;941;-41
2022/03/03 01:09:26;;;;;;;;;;;;;;;30.60;18.15;100402.22;5075431;28;776;-41
2022/03/03 01:11:51;;;;;;;;;;;;;;;31.18;18.26;100404.25;5070981;28;1956;-42
2022/03/03 01:14:21;;;;;;;;;;;;;;;31.22;17.95;100394.59;5075820;28;774;-42
2022/03/03 01:16:47;;;;;;;;;;;;;;;31.32;17.74;100396.84;5071580;28;845;-42
2022/03/03 01:19:12;;;;;;;;;;;;;;;31.16;18.07;100393.63;5076075;28;821;-42
2022/03/03 01:21:37;;;;;;;;;;;;;;;31.07;18.06;100387.59;5076003;28;1402;-42
2022/03/03 01:24:03;;;;;;;;;;;;;;;31.19;17.90;100386.91;5073347;28;881;-42
2022/03/03 01:26:28;;;;;;;;;;;;;;;31.22;17.61;100387.28;5075666;28;822;-41
2022/03/03 01:28:53;;;;;;;;;;;;;;;30.58;17.90;100393.47;5078557;28;804;-42
2022/03/03 01:31:19;;;;;;;;;;;;;;;30.49;18.17;100381.19;5076932;28;1897;-41
2022/03/03 01:33:44;;;;;;;;;;;;;;;31.03;17.55;100373.63;5079690;28;1065;-41
2022/03/03 01:36:09;;;;;;;;;;;;;;;31.00;17.21;100374.06;5079246;28;829;-41
2022/03/03 01:38:34;;;;;;;;;;;;;;;30.88;17.23;100379.34;5079572;28;982;-41
2022/03/03 01:41:00;;;;;;;;;;;;;;;30.86;17.01;100377.91;5079736;28;749;-41
2022/03/03 01:43:25;;;;;;;;;;;;;;;30.98;16.79;100365.28;5079458;28;903;-41
2022/03/03 01:45:50;;;;;;;;;;;;;;;30.30;16.61;100372.91;5079220;28;845;-41
2022/03/03 01:48:15;;;;;;;;;;;;;;;29.61;17.38;100365.09;5077469;28;761;-42
2022/03/03 01:50:41;;;;;;;;;;;;;;;30.50;16.93;100367.41;5079485;28;1979;-42
2022/03/03 01:53:06;;;;;;;;;;;;;;;30.75;16.63;100371.25;5078700;28;1343;-42
2022/03/03 01:55:31;;;;;;;;;;;;;;;30.84;16.60;100371.88;5079238;28;810;-42
2022/03/03 01:57:57;;;;;;;;;;;;;;;30.73;16.37;100374.19;5078004;28;787;-42
2022/03/03 02:00:23;;;;;;;;;;;;;;;30.74;16.38;100361.44;5078137;28;904;-42
2022/03/03 02:02:48;;;;;;;;;;;;;;;30.87;16.37;100368.72;5074703;28;921;-41
2022/03/03 02:05:14;;;;;;;;;;;;;;;30.92;16.22;100377.03;5079025;28;805;-41
2022/03/03 02:07:39;;;;;;;;;;;;;;;31.19;16.04;100376.03;5078532;28;789;-41
2022/03/03 02:10:05;;;;;;;;;;;;;;;31.32;15.63;100380.53;5079082;28;1918;-42
2022/03/03 02:12:30;;;;;;;;;;;;;;;31.37;15.67;100381.53;5078660;28;987;-41
2022/03/03 02:14:56;;;;;;;;;;;;;;;31.16;15.96;100378.13;5078061;28;869;-42
2022/03/03 02:17:21;;;;;;;;;;;;;;;30.59;16.16;100378.00;5074037;28;1052;-42
2022/03/03 02:19:47;;;;;;;;;;;;;;;30.45;16.18;100367.22;5078990;28;840;-42
2022/03/03 02:22:12;;;;;;;;;;;;;;;30.92;16.29;100374.31;5072006;28;833;-41
2022/03/03 02:24:38;;;;;;;;;;;;;;;30.99;16.18;100371.56;5078761;28;857;-42
2022/03/03 02:27:03;;;;;;;;;;;;;;;30.90;16.24;100377.25;5071445;28;1100;-42
2022/03/03 02:29:29;;;;;;;;;;;;;;;30.94;16.22;100382.25;5078576;28;762;-42
2022/03/03 02:31:54;;;;;;;;;;;;;;;30.96;16.22;100378.28;5076005;28;1898;-42
2022/03/03 02:34:19;;;;;;;;;;;;;;;31.00;16.23;100378.66;5078532;28;990;-42
2022/03/03 02:36:45;;;;;;;;;;;;;;;30.36;16.53;100374.78;5078483;28;754;-42
2022/03/03 02:39:10;;;;;;;;;;;;;;;30.59;16.74;100378.84;5076895;28;837;-42
2022/03/03 02:41:37;;;;;;;;;;;;;;;30.97;16.54;100373.66;5078648;28;823;-42
2022/03/03 02:44:02;;;;;;;;;;;;;;;30.83;16.73;100375.66;5078198;28;829;-41
2022/03/03 02:46:28;;;;;;;;;;;;;;;30.71;16.75;100373.59;5078140;28;839;-42
2022/03/03 02:48:53;;;;;;;;;;;;;;;30.80;16.52;100371.47;5078004;28;833;-42
2022/03/03 02:51:18;;;;;;;;;;;;;;;30.95;16.63;100365.72;5077746;28;1906;-41
2022/03/03 02:53:44;;;;;;;;;;;;;;;31.14;16.25;100361.22;5077931;28;885;-42
2022/03/03 02:56:09;;;;;;;;;;;;;;;31.38;16.09;100364.16;5077719;28;828;-42
2022/03/03 02:58:34;;;;;;;;;;;;;;;31.49;16.25;100368.09;5077828;28;734;-42
2022/03/03 03:01:00;;;;;;;;;;;;;;;30.64;16.61;100367.34;5076161;28;815;-41
2022/03/03 03:03:25;;;;;;;;;;;;;;;30.30;16.66;100362.06;5077814;28;836;-42
2022/03/03 03:05:50;;;;;;;;;;;;;;;31.00;16.76;100373.22;5076983;28;879;-42
2022/03/03 03:08:16;;;;;;;;;;;;;;;31.20;16.57;100370.38;5078240;28;833;-42
2022/03/03 03:10:41;;;;;;;;;;;;;;;31.08;16.39;100366.72;5092679;28;1957;-42
2022/03/03 03:13:07;;;;;;;;;;;;;;;31.04;16.49;100363.59;5077900;28;788;-41
2022/03/03 03:15:32;;;;;;;;;;;;;;;30.94;16.55;100360.53;5075632;28;858;-42
2022/03/03 03:18:14;;;;;;;;;;;;;;;31.04;16.62;100356.28;5073107;28;897;-40
2022/03/03 03:20:40;;;;;;;;;;;;;;;30.72;16.64;100356.25;5078197;28;814;-42
2022/03/03 03:23:06;;;;;;;;;;;;;;;30.33;16.77;100358.91;5077304;28;746;-42
2022/03/03 03:25:31;;;;;;;;;;;;;;;30.41;17.21;100366.00;5077852;28;754;-40
2022/03/03 03:27:56;;;;;;;;;;;;;;;30.28;16.89;100366.88;5077428;28;897;-42
2022/03/03 03:30:21;;;;;;;;;;;;;;;30.09;17.11;100366.69;5076129;28;1960;-42
2022/03/03 03:32:47;;;;;;;;;;;;;;;29.88;17.36;100362.38;5092705;28;1213;-41
2022/03/03 03:35:12;;;;;;;;;;;;;;;29.72;17.56;100360.91;5077089;28;821;-42
2022/03/03 03:37:38;;;;;;;;;;;;;;;29.57;17.99;100365.50;5092135;28;829;-42
2022/03/03 03:40:07;;;;;;;;;;;;;;;29.52;18.18;100362.56;5077301;28;770;-42
2022/03/03 03:42:32;;;;;;;;;;;;;;;29.35;18.25;100378.41;5074154;28;816;-41
2022/03/03 03:44:58;;;;;;;;;;;;;;;29.23;18.57;100363.81;5075938;28;837;-42
2022/03/03 03:47:23;;;;;;;;;;;;;;;29.11;18.51;100377.13;5077007;28;801;-41
2022/03/03 03:49:48;;;;;;;;;;;;;;;29.30;18.82;100367.34;5077365;28;932;-42
2022/03/03 03:52:13;;;;;;;;;;;;;;;29.51;18.21;100362.78;5076022;28;1973;-42
2022/03/03 03:54:39;;;;;;;;;;;;;;;29.99;17.95;100369.00;5091935;28;814;-41
2022/03/03 03:57:04;;;;;;;;;;;;;;;30.57;17.37;100369.25;5069960;28;921;-42
2022/03/03 03:59:29;;;;;;;;;;;;;;;30.51;17.27;100362.81;5076676;28;772;-42
2022/03/03 04:01:55;;;;;;;;;;;;;;;30.58;17.47;100370.94;5075009;28;878;-41
2022/03/03 04:04:20;;;;;;;;;;;;;;;30.83;17.25;100360.16;5076425;28;825;-41
2022/03/03 04:06:46;;;;;;;;;;;;;;;31.22;16.70;100373.72;5076469;28;805;-42
2022/03/03 04:09:11;;;;;;;;;;;;;;;31.40;16.58;100363.97;5073382;28;814;-42
2022/03/03 04:11:36;;;;;;;;;;;;;;;30.70;16.94;100365.66;5076738;28;1898;-43
2022/03/03 04:14:01;;;;;;;;;;;;;;;30.34;17.36;100366.03;5076408;28;865;-42
2022/03/03 04:16:28;;;;;;;;;;;;;;;30.62;17.52;100364.84;5075280;28;895;-42
2022/03/03 04:18:53;;;;;;;;;;;;;;;30.86;17.33;100364.34;5076589;28;742;-42
2022/03/03 04:21:18;;;;;;;;;;;;;;;30.76;17.39;100367.50;5075854;28;802;-42
2022/03/03 04:23:44;;;;;;;;;;;;;;;30.77;17.56;100363.72;5076305;28;975;-41
2022/03/03 04:26:09;;;;;;;;;;;;;;;30.74;17.29;100373.16;5076001;28;854;-42
2022/03/03 04:28:34;;;;;;;;;;;;;;;30.86;17.27;100370.63;5091669;28;886;-42
2022/03/03 04:31:00;;;;;;;;;;;;;;;31.13;17.15;100362.25;5076636;28;1894;-40
2022/03/03 04:33:25;;;;;;;;;;;;;;;30.63;17.17;100361.06;5069219;28;1051;-42
2022/03/03 04:35:50;;;;;;;;;;;;;;;30.43;17.77;100375.56;5075863;28;819;-42
2022/03/03 04:38:16;;;;;;;;;;;;;;;30.76;17.73;100362.06;5076321;28;944;-42
2022/03/03 04:40:41;;;;;;;;;;;;;;;31.09;17.36;100366.50;5076085;28;726;-42
2022/03/03 04:43:06;;;;;;;;;;;;;;;31.16;17.19;100372.69;5075953;28;821;-42
2022/03/03 04:45:31;;;;;;;;;;;;;;;30.77;16.09;100361.00;5076117;28;872;-43
2022/03/03 04:47:57;;;;;;;;;;;;;;;29.84;15.71;100361.94;5071387;28;939;-42
2022/03/03 04:50:22;;;;;;;;;;;;;;;28.93;14.12;100362.25;5074381;28;1902;-42
2022/03/03 04:52:47;;;;;;;;;;;;;;;28.51;15.65;100363.16;5078734;28;1332;-42
2022/03/03 04:55:12;;;;;;;;;;;;;;;29.16;15.98;100366.53;5095107;28;1416;-42
2022/03/03 04:57:38;;;;;;;;;;;;;;;29.16;15.91;100361.91;5082218;28;1147;-40
2022/03/03 05:00:04;;;;;;;;;;;;;;;28.95;16.09;100366.44;5076347;28;764;-40
2022/03/03 05:02:30;;;;;;;;;;;;;;;29.50;15.88;100361.94;5072782;28;993;-41
2022/03/03 05:04:55;;;;;;;;;;;;;;;28.92;16.80;100357.91;5075738;28;1508;-41
2022/03/03 05:07:20;;;;;;;;;;;;;;;29.76;16.15;100360.28;5074113;28;841;-41
2022/03/03 05:09:45;;;;;;;;;;;;;;;29.47;16.57;100373.19;5075849;28;886;-41
2022/03/03 05:12:11;;;;;;;;;;;;;;;29.65;16.43;100369.88;5076715;28;1901;-40
2022/03/03 05:14:36;;;;;;;;;;;;;;;29.42;16.76;100373.84;5075970;28;750;-41
2022/03/03 05:17:01;;;;;;;;;;;;;;;29.59;16.62;100370.75;5075649;28;847;-42
2022/03/03 05:19:27;;;;;;;;;;;;;;;30.14;16.08;100377.75;5075896;28;1460;-40
2022/03/03 05:21:52;;;;;;;;;;;;;;;29.88;16.44;100378.63;5075640;28;856;-41
2022/03/03 05:24:18;;;;;;;;;;;;;;;29.72;16.39;100375.31;5073722;28;769;-41
2022/03/03 05:26:43;;;;;;;;;;;;;;;28.14;17.89;100374.22;5075633;28;821;-41
2022/03/03 05:29:08;;;;;;;;;;;;;;;27.67;18.87;100376.56;5075884;28;850;-40
2022/03/03 05:31:34;;;;;;;;;;;;;;;28.90;17.82;100373.50;5070621;28;1967;-41
2022/03/03 05:33:59;;;;;;;;;;;;;;;29.62;17.13;100381.16;5075244;28;1008;-41
2022/03/03 05:36:25;;;;;;;;;;;;;;;29.66;16.82;100381.56;5076000;28;892;-41
2022/03/03 05:38:50;;;;;;;;;;;;;;;29.66;17.05;100384.28;5070176;28;899;-41
2022/03/03 05:41:15;;;;;;;;;;;;;;;29.73;16.92;100385.09;5074236;28;889;-41
2022/03/03 05:43:40;;;;;;;;;;;;;;;29.75;16.87;100387.59;5075707;28;742;-41
2022/03/03 05:46:06;;;;;;;;;;;;;;;29.87;17.10;100393.22;5071032;28;1058;-41
2022/03/03 05:48:31;;;;;;;;;;;;;;;29.98;16.69;100389.84;5075444;28;852;-40
2022/03/03 05:50:56;;;;;;;;;;;;;;;30.13;16.71;100392.34;5073204;28;1914;-40
2022/03/03 05:53:22;;;;;;;;;;;;;;;30.09;16.76;100387.56;5075614;28;821;-40
2022/03/03 05:55:49;;;;;;;;;;;;;;;30.34;16.43;100386.88;5075410;28;861;-41
2022/03/03 05:58:15;;;;;;;;;;;;;;;30.31;16.61;100388.16;5074931;28;821;-42
2022/03/03 06:00:42;;;;;;;;;;;;;;;30.03;16.64;100391.97;5074085;28;1444;-40
2022/03/03 06:03:08;;;;;;;;;;;;;;;30.25;16.58;100399.84;5073756;28;826;-40
2022/03/03 06:05:33;;;;;;;;;;;;;;;30.02;16.48;100403.84;5074120;28;1464;-41
2022/03/03 06:08:02;;;;;;;;;;;;;;;28.14;18.49;100406.69;5074375;28;833;-40
2022/03/03 06:10:28;;;;;;;;;;;;;;;27.59;19.48;100407.28;5075423;28;2105;-40
2022/03/03 06:12:58;;;;;;;;;;;;;;;29.31;17.54;100405.06;5075704;28;1277;-40
2022/03/03 06:15:23;;;;;;;;;;;;;;;29.97;16.61;100415.31;5078076;28;1218;-40
2022/03/03 06:17:49;;;;;;;;;;;;;;;30.12;16.81;100411.53;5078369;28;1364;-41
2022/03/03 06:20:14;;;;;;;;;;;;;;;30.16;16.73;100419.03;5084119;28;1475;-40
2022/03/03 06:22:40;;;;;;;;;;;;;;;30.26;16.74;100420.53;5076532;28;1334;-41
2022/03/03 06:25:05;;;;;;;;;;;;;;;30.40;16.59;100419.44;5077532;28;1383;-41
2022/03/03 06:27:31;;;;;;;;;;;;;;;30.59;16.40;100422.28;5075645;28;1304;-41
2022/03/03 06:29:56;;;;;;;;;;;;;;;30.75;16.37;100418.25;5077646;28;1336;-41
2022/03/03 06:32:22;;;;;;;;;;;;;;;30.99;16.29;100415.88;5066370;28;1894;-41
2022/03/03 06:34:47;;;;;;;;;;;;;;;31.20;15.89;100423.91;5070204;28;1170;-41
2022/03/03 06:37:12;;;;;;;;;;;;;;;31.33;15.91;100425.69;5072312;28;1331;-41
2022/03/03 06:39:37;;;;;;;;;;;;;;;30.08;16.79;100419.25;5077064;28;1308;-41
2022/03/03 06:42:03;;;;;;;;;;;;;;;29.65;17.25;100417.84;5074337;28;1304;-41
2022/03/03 06:44:28;;;;;;;;;;;;;;;30.27;17.11;100422.19;5075485;28;1195;-41
2022/03/03 06:46:54;;;;;;;;;;;;;;;30.40;17.11;100424.84;5077449;28;1308;-41
2022/03/03 06:49:20;;;;;;;;;;;;;;;30.35;16.98;100427.38;5080488;28;1442;-41
2022/03/03 06:51:47;;;;;;;;;;;;;;;30.39;16.93;100430.50;5081468;28;1906;-41
2022/03/03 06:54:13;;;;;;;;;;;;;;;30.48;16.99;100422.97;5076411;28;1384;-40
2022/03/03 06:56:48;;;;;;;;;;;;;;;30.67;16.76;100427.47;5080300;28;1436;-41
2022/03/03 06:59:15;;;;;;;;;;;;;;;30.90;16.66;100434.28;5081844;28;1143;-42
2022/03/03 07:01:40;;;;;;;;;;;;;;;31.10;16.60;100429.78;5080375;28;1554;-41
2022/03/03 07:04:06;;;;;;;;;;;;;;;31.39;16.11;100430.28;5081921;28;915;-43
2022/03/03 07:06:31;;;;;;;;;;;;;;;30.55;16.64;100437.31;5077010;28;776;-42
2022/03/03 07:08:56;;;;;;;;;;;;;;;30.22;17.12;100428.25;5078087;28;1282;-42
2022/03/03 07:11:22;;;;;;;;;;;;;;;30.71;17.12;100435.19;5084037;28;1917;-42
2022/03/03 07:13:47;;;;;;;;;;;;;;;31.06;16.62;100440.28;5078070;28;747;-42
2022/03/03 07:16:23;;;;;;;;;;;;;;;31.01;16.66;100448.25;5072230;28;893;-43
2022/03/03 07:18:54;;;;;;;;;;;;;;;30.99;16.82;100450.34;5076542;28;774;-42
2022/03/03 07:21:34;;;;;;;;;;;;;;;30.94;16.66;100445.56;5074948;28;750;-41
2022/03/03 07:24:04;;;;;;;;;;;;;;;30.71;16.48;100435.19;5081743;28;1360;-42
2022/03/03 07:26:30;;;;;;;;;;;;;;;30.84;16.70;100446.03;5075105;28;1042;-41
2022/03/03 07:28:56;;;;;;;;;;;;;;;30.53;17.05;100444.88;5077422;28;1159;-41
2022/03/03 07:31:23;;;;;;;;;;;;;;;30.79;16.77;100440.38;5071051;28;1914;-42
2022/03/03 07:33:55;;;;;;;;;;;;;;;30.72;16.83;100443.13;5076757;28;1109;-42
2022/03/03 07:36:24;;;;;;;;;;;;;;;30.79;16.86;100448.53;5077283;28;874;-41
2022/03/03 07:38:57;;;;;;;;;;;;;;;30.97;16.67;100436.13;5077553;28;794;-42
2022/03/03 07:41:22;;;;;;;;;;;;;;;31.10;16.58;100448.81;5070538;28;1012;-42
2022/03/03 07:43:48;;;;;;;;;;;;;;;31.37;16.21;100454.91;5077428;28;865;-42
2022/03/03 07:46:13;;;;;;;;;;;;;;;31.54;16.03;100454.41;5070506;28;1256;-42
2022/03/03 07:48:39;;;;;;;;;;;;;;;31.12;16.43;100455.69;5080531;28;1739;-42
2022/03/03 07:51:04;;;;;;;;;;;;;;;30.44;17.00;100452.41;5077007;28;1971;-42
2022/03/03 07:53:30;;;;;;;;;;;;;;;30.13;17.53;100453.91;5076975;28;754;-42
2022/03/03 07:55:56;;;;;;;;;;;;;;;31.00;16.87;100455.56;5079556;28;1193;-42
2022/03/03 07:58:22;;;;;;;;;;;;;;;30.90;16.81;100457.88;5077417;28;1107;-41
2022/03/03 08:00:48;;;;;;;;;;;;;;;30.66;16.80;100463.00;5076781;28;1213;-42
2022/03/03 08:03:17;;;;;;;;;;;;;;;30.75;16.61;100463.56;5079191;28;1380;-43
2022/03/03 08:05:43;;;;;;;;;;;;;;;30.81;16.69;100456.47;5082079;28;1162;-41
2022/03/03 08:08:09;;;;;;;;;;;;;;;31.16;16.31;100454.19;5077296;28;1182;-42
2022/03/03 08:10:35;;;;;;;;;;;;;;;30.48;16.68;100453.63;5078356;28;1897;-42
2022/03/03 08:13:00;;;;;;;;;;;;;;;30.12;17.06;100446.78;5078618;28;829;-42
2022/03/03 08:15:26;;;;;;;;;;;;;;;30.75;16.80;100450.84;5074212;28;1165;-42
2022/03/03 08:17:52;;;;;;;;;;;;;;;31.00;16.60;100450.13;5075660;28;1173;-42
2022/03/03 08:20:17;;;;;;;;;;;;;;;31.15;16.55;100454.41;5077969;28;1146;-42
2022/03/03 08:22:43;;;;;;;;;;;;;;;31.24;16.59;100450.41;5075551;28;1125;-42
2022/03/03 08:25:09;;;;;;;;;;;;;;;31.23;16.51;100450.63;5072729;28;838;-42
2022/03/03 08:27:35;;;;;;;;;;;;;;;31.48;16.36;100456.13;5076638;28;1206;-42
2022/03/03 08:30:00;;;;;;;;;;;;;;;31.51;16.20;100454.88;5076625;28;869;-41
2022/03/03 08:32:26;;;;;;;;;;;;;;;30.65;16.97;100453.16;5074684;28;1902;-41
2022/03/03 08:35:10;;;;;;;;;;;;;;;30.38;17.34;100450.56;5080565;28;1118;-41
2022/03/03 08:37:39;;;;;;;;;;;;;;;30.46;17.42;100453.03;5076282;28;1233;-41
2022/03/03 08:40:06;;;;;;;;;;;;;;;29.25;17.53;100457.38;5080168;28;1224;-41
2022/03/03 08:42:34;;;;;;;;;;;;;;;29.15;17.74;100455.06;5077841;28;1337;-42
2022/03/03 08:45:02;;;;;;;;;;;;;;;29.63;17.59;100463.31;5081706;28;1338;-42
2022/03/03 08:47:27;;;;;;;;;;;;;;;30.23;17.03;100456.22;5077715;28;1222;-41
2022/03/03 08:49:56;;;;;;;;;;;;;;;30.58;16.81;100446.94;5079803;28;1317;-41
2022/03/03 08:52:21;;;;;;;;;;;;;;;30.84;16.38;100453.34;5085998;28;1906;-42
2022/03/03 08:54:46;;;;;;;;;;;;;;;31.10;16.15;100448.81;5081921;28;825;-40
2022/03/03 08:57:12;;;;;;;;;;;;;;;31.37;16.08;100456.78;5076291;28;761;-42
2022/03/03 08:59:37;;;;;;;;;;;;;;;29.78;17.06;100450.38;5076118;28;797;-42
2022/03/03 09:02:04;;;;;;;;;;;;;;;29.07;17.81;100456.09;5074286;28;1242;-41
2022/03/03 09:04:29;;;;;;;;;;;;;;;29.34;17.64;100453.41;5079357;28;1368;-42
2022/03/03 09:06:54;;;;;;;;;;;;;;;30.56;16.61;100452.59;5083333;28;1126;-41
2022/03/03 09:09:20;;;;;;;;;;;;;;;30.92;16.41;100443.06;5078032;28;1229;-42
2022/03/03 09:11:45;;;;;;;;;;;;;;;31.15;16.02;100446.25;5076508;28;1890;-42
2022/03/03 09:14:11;;;;;;;;;;;;;;;31.40;16.03;100442.78;5076019;28;785;-41
2022/03/03 09:16:36;;;;;;;;;;;;;;;31.63;15.62;100450.34;5075979;28;1250;-41
2022/03/03 09:19:01;;;;;;;;;;;;;;;30.74;16.38;100446.47;5075926;28;846;-42
2022/03/03 09:21:28;;;;;;;;;;;;;;;30.49;16.99;100444.47;5091252;28;892;-41
2022/03/03 09:23:53;;;;;;;;;;;;;;;30.23;17.10;100448.88;5076000;28;1245;-41
2022/03/03 09:26:18;;;;;;;;;;;;;;;30.54;17.18;100444.66;5076262;28;1181;-42
2022/03/03 09:28:44;;;;;;;;;;;;;;;30.75;16.89;100433.69;5080894;28;796;-42
2022/03/03 09:31:09;;;;;;;;;;;;;;;31.02;16.61;100441.75;5076901;28;1965;-41
2022/03/03 09:33:34;;;;;;;;;;;;;;;31.25;16.62;100451.22;5075592;28;1043;-41
2022/03/03 09:36:00;;;;;;;;;;;;;;;31.22;16.53;100448.94;5076948;28;1296;-42
2022/03/03 09:38:25;;;;;;;;;;;;;;;30.79;16.55;100449.38;5077728;28;797;-41
2022/03/03 09:40:50;;;;;;;;;;;;;;;31.29;16.32;100452.47;5070008;28;822;-42
2022/03/03 09:43:16;;;;;;;;;;;;;;;30.65;15.99;100437.72;5074003;28;1095;-42
2022/03/03 09:45:41;;;;;;;;;;;;;;;29.72;17.22;100444.94;5071592;28;946;-41
2022/03/03 09:48:07;;;;;;;;;;;;;;;29.42;17.43;100438.03;5072308;28;830;-42
2022/03/03 09:50:35;;;;;;;;;;;;;;;30.63;16.68;100434.38;5078866;28;1894;-41
2022/03/03 09:53:01;;;;;;;;;;;;;;;30.97;16.45;100438.84;5079106;28;794;-41
2022/03/03 09:55:26;;;;;;;;;;;;;;;31.07;16.37;100438.38;5078385;28;1189;-41
2022/03/03 09:57:52;;;;;;;;;;;;;;;31.21;16.14;100434.56;5067881;28;1288;-42
2022/03/03 10:00:17;;;;;;;;;;;;;;;31.35;15.94;100440.72;5077530;28;831;-42
2022/03/03 10:02:59;;;;;;;;;;;;;;;29.96;16.88;100421.81;5074927;28;943;-42
2022/03/03 10:05:28;;;;;;;;;;;;;;;28.98;17.76;100421.28;5074716;28;1237;-38
2022/03/03 10:08:00;;;;;;;;;;;;;;;28.38;18.54;100423.47;5082119;28;1364;-41
2022/03/03 10:10:25;;;;;;;;;;;;;;;28.23;18.52;100420.84;5084260;28;1965;-41
2022/03/03 10:12:52;;;;;;;;;;;;;;;28.77;18.14;100418.47;5084562;28;1427;-42
2022/03/03 10:15:19;;;;;;;;;;;;;;;29.50;17.49;100410.72;5079838;28;1446;-42
2022/03/03 10:17:45;;;;;;;;;;;;;;;30.24;16.84;100418.03;5075975;28;1119;-41
2022/03/03 10:20:10;;;;;;;;;;;;;;;30.48;16.49;100414.81;5080363;28;817;-42
2022/03/03 10:22:43;;;;;;;;;;;;;;;30.82;16.18;100418.25;5077835;28;948;-42
2022/03/03 10:25:08;;;;;;;;;;;;;;;31.07;16.08;100420.19;5078773;28;881;-41
2022/03/03 10:27:34;;;;;;;;;;;;;;;31.35;15.87;100410.81;5081848;28;718;-41
2022/03/03 10:30:01;;;;;;;;;;;;;;;29.78;16.97;100412.41;5078469;28;825;-41
2022/03/03 10:32:26;;;;;;;;;;;;;;;29.46;17.55;100406.78;5076175;28;1973;-42
2022/03/03 10:34:53;;;;;;;;;;;;;;;30.76;16.39;100406.31;5078611;28;1419;-42
2022/03/03 10:37:22;;;;;;;;;;;;;;;31.10;15.98;100410.78;5081486;28;1416;-42
2022/03/03 10:39:48;;;;;;;;;;;;;;;30.90;16.19;100417.16;5077605;28;801;-42
2022/03/03 10:42:16;;;;;;;;;;;;;;;30.48;16.27;100409.41;5077955;28;1376;-42
2022/03/03 10:44:42;;;;;;;;;;;;;;;30.25;16.61;100407.97;5080465;28;892;-41
2022/03/03 10:47:08;;;;;;;;;;;;;;;30.76;15.76;100402.81;5072328;28;1040;-43
2022/03/03 10:49:37;;;;;;;;;;;;;;;29.93;16.53;100393.22;5078560;28;797;-42
2022/03/03 10:52:08;;;;;;;;;;;;;;;29.80;17.02;100404.91;5078515;28;1913;-42
2022/03/03 10:54:36;;;;;;;;;;;;;;;31.12;15.94;100405.97;5078054;28;942;-42
2022/03/03 10:57:01;;;;;;;;;;;;;;;31.34;15.50;100403.72;5076561;28;829;-42
2022/03/03 10:59:26;;;;;;;;;;;;;;;31.45;15.36;100404.91;5077437;28;1264;-41
2022/03/03 11:01:53;;;;;;;;;;;;;;;31.77;15.20;100395.88;5076666;28;1151;-42
2022/03/03 11:04:23;;;;;;;;;;;;;;;30.36;16.22;100390.22;5073138;28;1557;-42
2022/03/03 11:06:53;;;;;;;;;;;;;;;30.03;16.60;100394.69;5071898;28;1210;-42
2022/03/03 11:09:19;;;;;;;;;;;;;;;29.88;16.81;100392.19;5073376;28;1097;-41
2022/03/03 11:11:47;;;;;;;;;;;;;;;29.66;16.88;100395.94;5080100;28;1889;-42
2022/03/03 11:14:12;;;;;;;;;;;;;;;29.42;17.06;100390.09;5077251;28;1197;-41
2022/03/03 11:16:38;;;;;;;;;;;;;;;29.99;16.94;100394.25;5078944;28;1309;-39
2022/03/03 11:19:03;;;;;;;;;;;;;;;30.42;16.55;100394.78;5075608;28;1277;-41
2022/03/03 11:21:28;;;;;;;;;;;;;;;30.40;16.64;100389.56;5077542;28;794;-42
2022/03/03 11:23:58;;;;;;;;;;;;;;;30.97;16.06;100395.38;5077467;28;853;-42
2022/03/03 11:26:34;;;;;;;;;;;;;;;31.27;15.74;100392.91;5076501;28;904;-41
2022/03/03 11:29:03;;;;;;;;;;;;;;;31.32;15.67;100396.84;5076830;28;1298;-41
2022/03/03 11:31:32;;;;;;;;;;;;;;;30.08;16.53;100392.13;5068984;28;2011;-40
2022/03/03 11:34:15;;;;;;;;;;;;;;;29.42;17.03;100389.25;5077301;28;1068;-42
2022/03/03 11:36:47;;;;;;;;;;;;;;;30.79;16.22;100388.78;5077620;28;934;-42
2022/03/03 11:39:30;;;;;;;;;;;;;;;31.00;15.96;100392.22;5077880;28;852;-42
2022/03/03 11:41:56;;;;;;;;;;;;;;;29.87;17.08;100394.06;5077508;28;824;-41
2022/03/03 11:44:29;;;;;;;;;;;;;;;29.23;17.55;100389.00;5075803;28;850;-41
2022/03/03 11:46:56;;;;;;;;;;;;;;;30.99;16.01;100386.00;5077267;28;813;-42
2022/03/03 11:49:25;;;;;;;;;;;;;;;30.17;16.41;100390.88;5077407;28;802;-43
2022/03/03 11:51:51;;;;;;;;;;;;;;;29.57;17.04;100391.75;5077203;28;1906;-42
2022/03/03 11:54:16;;;;;;;;;;;;;;;29.36;17.21;100384.66;5084595;28;1495;-42
2022/03/03 11:57:00;;;;;;;;;;;;;;;29.21;17.64;100383.00;5076808;28;1214;-41
2022/03/03 11:59:32;;;;;;;;;;;;;;;29.07;17.53;100380.25;5077285;28;814;-42
2022/03/03 12:01:57;;;;;;;;;;;;;;;29.77;17.21;100374.66;5074135;28;899;-42
2022/03/03 12:04:25;;;;;;;;;;;;;;;30.76;16.54;100384.59;5077025;28;765;-43
2022/03/03 12:06:50;;;;;;;;;;;;;;;31.16;15.91;100380.84;5076672;28;785;-42
2022/03/03 12:09:16;;;;;;;;;;;;;;;31.40;15.61;100388.44;5077083;28;817;-42
2022/03/03 12:11:42;;;;;;;;;;;;;;;31.50;15.66;100387.94;5076348;28;1957;-41
2022/03/03 12:14:07;;;;;;;;;;;;;;;31.69;15.35;100386.13;5072301;28;1037;-41
2022/03/03 12:16:33;;;;;;;;;;;;;;;31.79;15.47;100377.44;5072079;28;1218;-42
2022/03/03 12:19:02;;;;;;;;;;;;;;;30.68;15.96;100385.69;5076247;28;1319;-42
2022/03/03 12:21:44;;;;;;;;;;;;;;;30.06;16.59;100383.41;5082032;28;797;-42
2022/03/03 12:24:12;;;;;;;;;;;;;;;30.74;16.59;100380.44;5076536;28;857;-41
2022/03/03 12:29:27;;;;;;;;;;;;;;;31.66;15.65;100386.56;5076543;28;751;-41
2022/03/03 12:31:52;;;;;;;;;;;;;;;31.96;15.16;100377.72;5074155;28;1955;-43
2022/03/03 12:34:19;;;;;;;;;;;;;;;32.30;14.82;100387.41;5091564;28;1243;-41
2022/03/03 12:36:44;;;;;;;;;;;;;;;31.59;15.17;100386.63;5075217;28;798;-40
2022/03/03 12:39:10;;;;;;;;;;;;;;;31.32;15.44;100383.25;5071147;28;864;-41
2022/03/03 12:41:36;;;;;;;;;;;;;;;31.74;15.43;100380.84;5077597;28;1118;-42
2022/03/03 12:44:05;;;;;;;;;;;;;;;31.91;15.08;100384.84;5076025;28;1264;-42
2022/03/03 12:46:31;;;;;;;;;;;;;;;29.85;16.79;100382.59;5070332;28;950;-41
2022/03/03 12:48:56;;;;;;;;;;;;;;;30.75;16.33;100393.81;5075243;28;818;-41
2022/03/03 12:51:21;;;;;;;;;;;;;;;32.19;14.58;100384.38;5073191;28;1986;-41